Time;durP1;ratioP1;P1;durP2;ratioP2;P2;SDS_P1;SDS_P2;PMS_P1;PMS_P2;Temp;Humidity;BMP_temperature;BMP_pressure;BME280_temperature;BME280_humidity;BME280_pressure;Samples;Min_cycle;Max_cycle;Signal;HPM_P1;HPM_P2
2022/10/18 00:02:05;;;;;;;8.10;4.60;;;;;;;;;;4985945;28;20082;-65
2022/10/18 00:04:32;;;;;;;8.50;4.80;;;;;;;;;;4982459;28;20064;-65
2022/10/18 00:06:58;;;;;;;14.43;6.40;;;;;;;;;;4982056;28;20043;-65
2022/10/18 00:09:26;;;;;;;10.40;5.82;;;;;;;;;;4979378;28;20093;-65
2022/10/18 00:11:54;;;;;;;8.35;5.38;;;;;;;;;;4981716;28;20105;-65
2022/10/18 00:14:20;;;;;;;8.48;5.15;;;;;;;;;;4980221;28;20465;-65
2022/10/18 00:16:47;;;;;;;10.82;5.38;;;;;;;;;;4981788;28;20047;-65
2022/10/18 00:19:14;;;;;;;10.70;5.15;;;;;;;;;;4981552;28;20054;-65
2022/10/18 00:21:40;;;;;;;13.15;5.70;;;;;;;;;;4981039;28;20406;-65
2022/10/18 00:24:07;;;;;;;7.28;5.60;;;;;;;;;;4981929;28;20054;-65
2022/10/18 00:26:34;;;;;;;8.25;4.80;;;;;;;;;;4980950;28;20078;-65
2022/10/18 00:29:03;;;;;;;10.82;5.32;;;;;;;;;;4979772;28;21170;-65
2022/10/18 00:31:34;;;;;;;13.50;5.47;;;;;;;;;;4980559;28;20101;-65
2022/10/18 00:34:03;;;;;;;7.82;5.28;;;;;;;;;;4984727;28;20054;-65
2022/10/18 00:36:31;;;;;;;11.43;5.43;;;;;;;;;;4978687;28;20506;-65
2022/10/18 00:38:57;;;;;;;6.00;5.25;;;;;;;;;;4980668;28;20050;-65
2022/10/18 00:41:26;;;;;;;7.28;5.50;;;;;;;;;;4978766;28;20097;-65
2022/10/18 00:44:12;;;;;;;7.00;5.15;;;;;;;;;;4982015;28;20460;-65
2022/10/18 00:46:42;;;;;;;11.10;5.50;;;;;;;;;;4987032;28;20050;-65
2022/10/18 00:49:10;;;;;;;7.88;4.93;;;;;;;;;;4978468;28;20050;-65
2022/10/18 00:51:43;;;;;;;8.27;5.60;;;;;;;;;;4981173;28;20046;-65
2022/10/18 00:54:10;;;;;;;8.77;5.97;;;;;;;;;;4979847;28;20891;-65
2022/10/18 00:56:37;;;;;;;7.68;5.68;;;;;;;;;;4980064;28;20054;-65
2022/10/18 00:59:03;;;;;;;11.90;5.68;;;;;;;;;;4979902;28;20073;-65
2022/10/18 01:01:30;;;;;;;10.93;5.63;;;;;;;;;;4994487;28;20563;-65
2022/10/18 01:03:57;;;;;;;9.55;5.85;;;;;;;;;;4979937;28;20057;-65
2022/10/18 01:06:23;;;;;;;11.27;5.00;;;;;;;;;;4979123;28;20300;-65
2022/10/18 01:09:08;;;;;;;7.07;4.60;;;;;;;;;;4980545;28;20054;-65
2022/10/18 01:11:38;;;;;;;12.55;4.82;;;;;;;;;;4979513;28;20070;-65
2022/10/18 01:14:19;;;;;;;14.32;4.85;;;;;;;;;;4979579;28;20121;-65
2022/10/18 01:16:49;;;;;;;10.07;4.75;;;;;;;;;;4984279;28;20437;-65
2022/10/18 01:19:36;;;;;;;13.27;5.35;;;;;;;;;;4977017;28;20050;-65
2022/10/18 01:22:12;;;;;;;11.02;4.53;;;;;;;;;;4981706;28;20267;-65
2022/10/18 01:25:00;;;;;;;9.43;4.55;;;;;;;;;;4981611;28;20050;-65
2022/10/18 01:27:44;;;;;;;7.07;4.65;;;;;;;;;;4976597;28;20086;-65
2022/10/18 01:30:36;;;;;;;8.55;4.68;;;;;;;;;;4966751;28;20047;-65
2022/10/18 01:33:25;;;;;;;7.53;4.85;;;;;;;;;;4982617;28;20050;-65
2022/10/18 01:36:20;;;;;;;8.27;4.90;;;;;;;;;;4985743;28;20145;-65
2022/10/18 01:38:47;;;;;;;8.90;5.18;;;;;;;;;;4993429;28;20112;-65
2022/10/18 01:41:14;;;;;;;11.65;4.75;;;;;;;;;;4980138;28;20058;-65
2022/10/18 01:43:41;;;;;;;7.70;4.35;;;;;;;;;;4962933;28;20053;-65
2022/10/18 01:46:08;;;;;;;6.47;4.70;;;;;;;;;;4979991;28;20047;-65
2022/10/18 01:48:36;;;;;;;8.68;4.63;;;;;;;;;;4993954;28;20050;-65
2022/10/18 01:51:04;;;;;;;13.57;4.25;;;;;;;;;;4978784;28;20063;-65
2022/10/18 01:53:32;;;;;;;7.38;4.40;;;;;;;;;;4980486;28;20552;-65
2022/10/18 01:56:10;;;;;;;9.43;4.20;;;;;;;;;;4977877;28;20085;-65
2022/10/18 01:59:15;;;;;;;6.60;3.92;;;;;;;;;;4978075;28;20051;-65
2022/10/18 02:02:23;;;;;;;11.45;4.43;;;;;;;;;;4974873;28;20047;-65
2022/10/18 02:05:27;;;;;;;11.07;3.88;;;;;;;;;;4968351;28;20055;-65
2022/10/18 02:08:03;;;;;;;6.90;4.50;;;;;;;;;;4987163;28;20046;-65
2022/10/18 02:11:05;;;;;;;7.80;4.10;;;;;;;;;;4981581;28;20050;-65
2022/10/18 02:13:39;;;;;;;15.80;4.40;;;;;;;;;;4982125;28;20128;-65
2022/10/18 02:16:11;;;;;;;7.15;3.80;;;;;;;;;;4977643;28;20090;-65
2022/10/18 02:18:40;;;;;;;5.07;4.05;;;;;;;;;;4992863;28;20050;-65
2022/10/18 02:21:08;;;;;;;9.23;4.28;;;;;;;;;;4981416;28;20489;-65
2022/10/18 02:23:34;;;;;;;5.20;3.97;;;;;;;;;;4984954;28;20097;-65
2022/10/18 02:26:01;;;;;;;7.50;3.90;;;;;;;;;;4982103;28;20211;-65
2022/10/18 02:28:28;;;;;;;7.45;4.28;;;;;;;;;;4982260;28;20046;-65
2022/10/18 02:31:25;;;;;;;7.00;3.80;;;;;;;;;;4985378;28;20133;-65
2022/10/18 02:34:01;;;;;;;9.90;4.03;;;;;;;;;;4994231;28;20132;-65
2022/10/18 02:36:35;;;;;;;4.63;4.03;;;;;;;;;;4996833;28;20110;-65
2022/10/18 02:39:05;;;;;;;8.40;3.83;;;;;;;;;;4966364;28;20494;-65
2022/10/18 02:41:32;;;;;;;14.02;4.18;;;;;;;;;;4975880;28;20149;-65
2022/10/18 02:43:58;;;;;;;10.40;4.38;;;;;;;;;;4984336;28;20137;-65
2022/10/18 02:46:25;;;;;;;7.15;4.32;;;;;;;;;;4982972;28;20105;-65
2022/10/18 02:48:56;;;;;;;7.53;4.18;;;;;;;;;;4980280;28;20051;-65
2022/10/18 02:51:24;;;;;;;7.70;3.88;;;;;;;;;;4985622;28;20093;-65
2022/10/18 02:53:50;;;;;;;5.78;3.85;;;;;;;;;;4985000;28;20055;-65
2022/10/18 02:56:17;;;;;;;6.65;3.95;;;;;;;;;;4982153;28;20070;-65
2022/10/18 02:58:43;;;;;;;6.53;4.03;;;;;;;;;;4980740;28;20557;-65
2022/10/18 03:01:10;;;;;;;6.53;4.38;;;;;;;;;;4983090;28;20580;-65
2022/10/18 03:03:37;;;;;;;7.90;3.95;;;;;;;;;;4981805;28;20108;-65
2022/10/18 03:06:04;;;;;;;5.22;4.30;;;;;;;;;;4982757;28;20050;-65
2022/10/18 03:08:30;;;;;;;5.65;3.80;;;;;;;;;;4979719;28;20556;-65
2022/10/18 03:10:57;;;;;;;5.60;3.55;;;;;;;;;;4982344;28;20129;-65
2022/10/18 03:13:23;;;;;;;6.28;3.80;;;;;;;;;;4982361;28;20074;-65
2022/10/18 03:15:50;;;;;;;7.82;3.40;;;;;;;;;;4983944;28;20139;-65
2022/10/18 03:18:16;;;;;;;5.07;3.60;;;;;;;;;;4981253;28;20132;-65
2022/10/18 03:20:43;;;;;;;9.55;4.43;;;;;;;;;;4981607;28;20093;-65
2022/10/18 03:23:10;;;;;;;5.93;3.75;;;;;;;;;;4985772;28;20046;-65
2022/10/18 03:25:36;;;;;;;7.78;4.68;;;;;;;;;;4980310;28;20077;-65
2022/10/18 03:28:08;;;;;;;7.75;3.90;;;;;;;;;;4984704;28;20050;-65
2022/10/18 03:30:34;;;;;;;10.10;3.85;;;;;;;;;;4984241;28;20534;-65
2022/10/18 03:33:01;;;;;;;8.20;3.85;;;;;;;;;;4982126;28;20050;-65
2022/10/18 03:35:27;;;;;;;5.80;3.53;;;;;;;;;;4980488;28;20054;-65
2022/10/18 03:37:54;;;;;;;13.98;3.85;;;;;;;;;;4981822;28;20047;-65
2022/10/18 03:40:21;;;;;;;9.88;3.83;;;;;;;;;;4984493;28;20112;-65
2022/10/18 03:42:47;;;;;;;7.07;3.83;;;;;;;;;;4982972;28;20047;-65
2022/10/18 03:45:14;;;;;;;5.57;3.67;;;;;;;;;;4980527;28;20534;-65
2022/10/18 03:47:40;;;;;;;4.38;3.70;;;;;;;;;;4983394;28;20046;-65
2022/10/18 03:50:07;;;;;;;10.57;3.65;;;;;;;;;;4982723;28;20577;-65
2022/10/18 03:52:34;;;;;;;6.10;3.42;;;;;;;;;;4981790;28;20138;-65
2022/10/18 03:55:01;;;;;;;4.05;3.50;;;;;;;;;;4980944;28;20085;-65
2022/10/18 03:57:28;;;;;;;7.25;3.53;;;;;;;;;;4981015;28;20047;-65
2022/10/18 03:59:54;;;;;;;6.68;4.30;;;;;;;;;;4984414;28;20101;-65
2022/10/18 04:02:21;;;;;;;7.00;3.63;;;;;;;;;;4980567;28;20454;-65
2022/10/18 04:04:48;;;;;;;6.05;3.55;;;;;;;;;;4981838;28;20055;-65
2022/10/18 04:07:14;;;;;;;7.70;3.92;;;;;;;;;;4980001;28;20105;-66
2022/10/18 04:09:41;;;;;;;8.68;4.25;;;;;;;;;;4981452;28;20473;-65
2022/10/18 04:12:08;;;;;;;7.90;3.75;;;;;;;;;;4979579;28;20054;-65
2022/10/18 04:14:34;;;;;;;5.38;4.25;;;;;;;;;;4982250;28;20058;-65
2022/10/18 04:17:01;;;;;;;6.75;3.80;;;;;;;;;;4979853;28;20197;-65
2022/10/18 04:19:28;;;;;;;7.45;3.35;;;;;;;;;;4981276;28;20096;-65
2022/10/18 04:21:54;;;;;;;10.35;4.07;;;;;;;;;;4979472;28;20201;-65
2022/10/18 04:24:21;;;;;;;4.47;3.45;;;;;;;;;;4984008;28;20532;-65
2022/10/18 04:26:48;;;;;;;6.03;3.67;;;;;;;;;;4981357;28;20109;-65
2022/10/18 04:29:14;;;;;;;6.18;3.42;;;;;;;;;;4980644;28;20080;-65
2022/10/18 04:31:41;;;;;;;5.93;3.53;;;;;;;;;;4979539;28;20054;-65
2022/10/18 04:34:09;;;;;;;9.95;3.65;;;;;;;;;;4981184;28;20097;-65
2022/10/18 04:36:36;;;;;;;5.85;3.75;;;;;;;;;;4982419;28;20584;-65
2022/10/18 04:39:02;;;;;;;7.20;3.92;;;;;;;;;;4979707;28;20078;-65
2022/10/18 04:41:29;;;;;;;4.70;3.53;;;;;;;;;;4981180;28;20074;-65
2022/10/18 04:43:55;;;;;;;5.38;3.25;;;;;;;;;;4979360;28;20142;-65
2022/10/18 04:46:22;;;;;;;6.65;3.97;;;;;;;;;;4982547;28;20093;-65
2022/10/18 04:48:49;;;;;;;4.65;3.50;;;;;;;;;;4979136;28;20137;-65
2022/10/18 04:51:16;;;;;;;7.45;3.40;;;;;;;;;;4981320;28;20070;-65
2022/10/18 04:53:42;;;;;;;6.60;2.95;;;;;;;;;;4978535;28;20086;-65
2022/10/18 04:56:09;;;;;;;7.03;3.15;;;;;;;;;;4982127;28;20146;-65
2022/10/18 04:58:36;;;;;;;4.03;3.22;;;;;;;;;;4981714;28;20055;-65
2022/10/18 05:01:06;;;;;;;7.03;3.22;;;;;;;;;;4983913;28;20458;-65
2022/10/18 05:03:33;;;;;;;7.60;3.38;;;;;;;;;;4981474;28;20464;-65
2022/10/18 05:06:00;;;;;;;7.15;3.28;;;;;;;;;;4980762;28;20050;-65
2022/10/18 05:08:29;;;;;;;14.43;4.18;;;;;;;;;;4979647;28;20493;-65
2022/10/18 05:10:56;;;;;;;4.75;3.38;;;;;;;;;;4980147;28;20051;-65
2022/10/18 05:13:23;;;;;;;5.80;3.45;;;;;;;;;;4982420;28;20051;-65
2022/10/18 05:15:49;;;;;;;5.28;3.45;;;;;;;;;;4979353;28;20074;-65
2022/10/18 05:18:16;;;;;;;3.95;3.05;;;;;;;;;;4981843;28;20054;-65
2022/10/18 05:20:43;;;;;;;5.72;3.50;;;;;;;;;;4982241;28;20502;-65
2022/10/18 05:23:09;;;;;;;7.60;3.80;;;;;;;;;;4982531;28;20047;-65
2022/10/18 05:25:40;;;;;;;6.45;3.83;;;;;;;;;;4980853;28;20109;-65
2022/10/18 05:28:07;;;;;;;7.32;4.30;;;;;;;;;;4984525;28;20505;-65
2022/10/18 05:30:46;;;;;;;6.97;3.80;;;;;;;;;;4979127;28;20059;-65
2022/10/18 05:33:13;;;;;;;5.28;3.67;;;;;;;;;;4982073;28;20078;-65
2022/10/18 05:35:39;;;;;;;6.18;3.53;;;;;;;;;;4980070;28;20084;-65
2022/10/18 05:38:06;;;;;;;5.35;3.60;;;;;;;;;;4980662;28;20097;-65
2022/10/18 05:40:33;;;;;;;7.80;3.55;;;;;;;;;;4980292;28;20149;-65
2022/10/18 05:42:59;;;;;;;9.40;3.88;;;;;;;;;;4978486;28;20055;-66
2022/10/18 05:45:26;;;;;;;6.50;4.07;;;;;;;;;;4980333;28;20054;-65
2022/10/18 05:47:53;;;;;;;7.60;4.20;;;;;;;;;;4977381;28;20047;-65
2022/10/18 05:50:20;;;;;;;4.43;3.60;;;;;;;;;;4980414;28;20115;-65
2022/10/18 05:52:46;;;;;;;5.72;4.22;;;;;;;;;;4975911;28;20085;-65
2022/10/18 05:55:13;;;;;;;9.10;3.83;;;;;;;;;;4977129;28;20050;-65
2022/10/18 05:57:39;;;;;;;8.90;4.20;;;;;;;;;;4980034;28;20142;-65
2022/10/18 06:00:07;;;;;;;6.95;4.53;;;;;;;;;;4977059;28;20492;-66
2022/10/18 06:02:33;;;;;;;13.05;4.85;;;;;;;;;;4976795;28;20124;-65
2022/10/18 06:05:00;;;;;;;8.68;4.82;;;;;;;;;;4978824;28;20390;-66
2022/10/18 06:07:27;;;;;;;8.23;4.05;;;;;;;;;;4975900;28;20051;-65
2022/10/18 06:09:53;;;;;;;9.73;4.05;;;;;;;;;;4977012;28;20243;-67
2022/10/18 06:12:20;;;;;;;7.80;4.45;;;;;;;;;;4977338;28;20104;-66
2022/10/18 06:14:48;;;;;;;6.25;4.47;;;;;;;;;;4976660;28;20513;-66
2022/10/18 06:17:14;;;;;;;7.13;4.32;;;;;;;;;;4977223;28;20085;-66
2022/10/18 06:19:43;;;;;;;10.80;4.70;;;;;;;;;;4978488;28;20082;-65
2022/10/18 06:22:10;;;;;;;7.03;3.90;;;;;;;;;;4978506;28;20117;-66
2022/10/18 06:24:37;;;;;;;7.32;4.18;;;;;;;;;;4975506;28;20174;-66
2022/10/18 06:27:07;;;;;;;12.23;5.22;;;;;;;;;;4992407;28;20147;-66
2022/10/18 06:29:35;;;;;;;4.93;4.43;;;;;;;;;;4974922;28;20046;-66
2022/10/18 06:32:02;;;;;;;9.75;5.18;;;;;;;;;;4977231;28;20042;-66
2022/10/18 06:34:28;;;;;;;6.47;4.10;;;;;;;;;;4978522;28;20085;-66
2022/10/18 06:36:55;;;;;;;10.85;5.05;;;;;;;;;;4978605;28;20089;-66
2022/10/18 06:39:24;;;;;;;15.48;6.22;;;;;;;;;;4975949;28;20545;-66
2022/10/18 06:41:51;;;;;;;9.93;5.68;;;;;;;;;;4979162;28;20094;-65
2022/10/18 06:44:19;;;;;;;8.77;5.00;;;;;;;;;;4974637;28;20089;-66
2022/10/18 06:46:46;;;;;;;9.02;4.95;;;;;;;;;;4975637;28;20521;-65
2022/10/18 06:49:13;;;;;;;7.07;3.95;;;;;;;;;;4980748;28;20063;-66
2022/10/18 06:51:45;;;;;;;7.43;4.47;;;;;;;;;;4975301;28;20455;-65
2022/10/18 06:54:11;;;;;;;7.20;4.65;;;;;;;;;;4977549;28;20061;-65
2022/10/18 06:56:43;;;;;;;8.50;4.77;;;;;;;;;;4976332;28;20425;-65
2022/10/18 06:59:10;;;;;;;8.88;4.45;;;;;;;;;;4973573;28;20055;-65
2022/10/18 07:01:36;;;;;;;5.18;3.72;;;;;;;;;;4975946;28;20552;-67
2022/10/18 07:04:03;;;;;;;7.88;3.78;;;;;;;;;;4976581;28;20055;-65
2022/10/18 07:06:30;;;;;;;7.32;4.03;;;;;;;;;;4976192;28;20059;-66
2022/10/18 07:08:56;;;;;;;7.03;4.55;;;;;;;;;;4979568;28;20097;-66
2022/10/18 07:11:25;;;;;;;6.80;3.80;;;;;;;;;;4980413;28;20448;-66
2022/10/18 07:13:59;;;;;;;7.40;3.83;;;;;;;;;;4979085;28;20116;-67
2022/10/18 07:16:26;;;;;;;5.75;4.03;;;;;;;;;;4986379;28;20069;-66
2022/10/18 07:18:52;;;;;;;5.40;3.33;;;;;;;;;;4983326;28;20096;-66
2022/10/18 07:21:21;;;;;;;4.72;2.88;;;;;;;;;;4979173;28;20054;-67
2022/10/18 07:23:48;;;;;;;6.75;3.17;;;;;;;;;;4980648;28;20054;-66
2022/10/18 07:26:29;;;;;;;7.18;3.05;;;;;;;;;;4981288;28;20125;-65
2022/10/18 07:28:59;;;;;;;3.92;3.30;;;;;;;;;;4985280;28;20684;-66
2022/10/18 07:31:26;;;;;;;8.13;3.17;;;;;;;;;;4980499;28;20113;-66
2022/10/18 07:33:52;;;;;;;8.57;3.50;;;;;;;;;;4983649;28;20046;-66
2022/10/18 07:36:23;;;;;;;8.45;3.75;;;;;;;;;;4983657;28;20054;-67
2022/10/18 07:38:53;;;;;;;4.22;3.17;;;;;;;;;;4982972;28;20055;-68
2022/10/18 07:41:20;;;;;;;4.38;3.67;;;;;;;;;;4986298;28;20050;-66
2022/10/18 07:43:49;;;;;;;5.57;3.03;;;;;;;;;;4980593;28;20070;-66
2022/10/18 07:46:16;;;;;;;5.78;3.30;;;;;;;;;;4985136;28;20109;-65
2022/10/18 07:48:43;;;;;;;6.13;3.05;;;;;;;;;;4979818;28;20093;-67
2022/10/18 07:51:10;;;;;;;8.07;3.53;;;;;;;;;;4982218;28;20093;-67
2022/10/18 07:53:37;;;;;;;10.07;3.90;;;;;;;;;;4980773;28;20093;-65
2022/10/18 07:56:08;;;;;;;8.95;3.42;;;;;;;;;;4982235;28;20050;-66
2022/10/18 07:58:35;;;;;;;9.82;4.10;;;;;;;;;;4979047;28;20897;-66
2022/10/18 08:01:05;;;;;;;6.68;3.53;;;;;;;;;;4985225;28;20082;-66
2022/10/18 08:03:32;;;;;;;5.82;3.25;;;;;;;;;;4993466;28;20066;-66
2022/10/18 08:05:59;;;;;;;5.22;2.80;;;;;;;;;;4987452;28;20058;-67
2022/10/18 08:08:26;;;;;;;8.27;3.42;;;;;;;;;;4980802;28;20457;-65
2022/10/18 08:10:53;;;;;;;6.43;3.17;;;;;;;;;;4980444;28;20083;-65
2022/10/18 08:13:21;;;;;;;6.55;3.38;;;;;;;;;;4984684;28;20051;-66
2022/10/18 08:15:47;;;;;;;5.85;3.40;;;;;;;;;;4980005;28;20076;-66
2022/10/18 08:18:14;;;;;;;6.10;2.80;;;;;;;;;;4983891;28;20101;-66
2022/10/18 08:20:42;;;;;;;6.25;3.40;;;;;;;;;;4978845;28;20054;-65
2022/10/18 08:23:09;;;;;;;5.20;3.05;;;;;;;;;;4982082;28;20131;-66
2022/10/18 08:25:35;;;;;;;7.47;3.42;;;;;;;;;;4982573;28;20051;-66
2022/10/18 08:28:02;;;;;;;5.43;3.25;;;;;;;;;;4982455;28;20501;-64
2022/10/18 08:30:29;;;;;;;9.20;3.50;;;;;;;;;;4982077;28;20050;-64
2022/10/18 08:32:55;;;;;;;11.52;3.70;;;;;;;;;;4982595;28;20050;-65
2022/10/18 08:35:22;;;;;;;5.47;3.17;;;;;;;;;;4978736;28;20061;-66
2022/10/18 08:37:49;;;;;;;4.50;2.40;;;;;;;;;;4976080;28;20593;-65
2022/10/18 08:40:15;;;;;;;8.57;3.25;;;;;;;;;;4986531;28;20042;-65
2022/10/18 08:43:03;;;;;;;6.35;3.15;;;;;;;;;;4980794;28;20633;-65
2022/10/18 08:45:31;;;;;;;7.13;3.20;;;;;;;;;;4972280;28;20086;-67
2022/10/18 08:48:39;;;;;;;7.65;2.80;;;;;;;;;;4966488;28;20051;-66
2022/10/18 08:51:36;;;;;;;8.43;3.33;;;;;;;;;;4987747;28;20533;-66
2022/10/18 08:54:11;;;;;;;10.57;3.58;;;;;;;;;;4995376;28;20089;-66
2022/10/18 08:56:38;;;;;;;8.40;3.53;;;;;;;;;;4982333;28;20099;-66
2022/10/18 08:59:09;;;;;;;8.27;3.85;;;;;;;;;;4981089;28;20043;-66
2022/10/18 09:01:58;;;;;;;6.78;3.47;;;;;;;;;;4995371;28;20112;-74
2022/10/18 09:04:46;;;;;;;5.95;3.33;;;;;;;;;;4985665;28;20046;-71
2022/10/18 09:07:35;;;;;;;6.82;3.80;;;;;;;;;;4982609;28;20050;-68
2022/10/18 09:10:20;;;;;;;15.90;4.35;;;;;;;;;;4988686;28;20038;-76
2022/10/18 09:13:16;;;;;;;11.82;4.07;;;;;;;;;;4981417;28;20046;-66
2022/10/18 09:16:10;;;;;;;8.23;4.00;;;;;;;;;;4972453;28;20094;-65
2022/10/18 09:19:01;;;;;;;4.28;3.25;;;;;;;;;;4996138;28;20466;-65
2022/10/18 09:21:53;;;;;;;5.43;3.30;;;;;;;;;;4980961;28;20576;-65
2022/10/18 09:24:49;;;;;;;8.13;3.47;;;;;;;;;;4980011;28;20129;-65
2022/10/18 09:27:17;;;;;;;8.93;3.00;;;;;;;;;;4980802;28;20505;-66
2022/10/18 09:29:47;;;;;;;8.25;3.25;;;;;;;;;;4978416;28;20137;-66
2022/10/18 09:32:31;;;;;;;3.88;2.90;;;;;;;;;;4978214;28;20105;-65
2022/10/18 09:35:05;;;;;;;3.92;2.40;;;;;;;;;;4981467;28;20055;-65
2022/10/18 09:37:31;;;;;;;;;;;;;;;;;;4987223;28;20046;-65
2022/10/18 09:40:25;;;;;;;7.35;2.53;;;;;;;;;;5010079;28;19929;-65
2022/10/18 09:43:13;;;;;;;6.63;2.95;;;;;;;;;;4986884;28;20046;-66
2022/10/18 09:45:42;;;;;;;5.88;2.63;;;;;;;;;;5005284;28;20119;-65
2022/10/18 09:48:17;;;;;;;6.15;2.38;;;;;;;;;;5029121;23;20080;-68
2022/10/18 09:51:10;;;;;;;4.90;2.72;;;;;;;;;;5038983;28;20049;-67
2022/10/18 09:53:44;;;;;;;4.70;2.53;;;;;;;;;;5041279;28;20107;-67
2022/10/18 09:56:16;;;;;;;6.50;3.10;;;;;;;;;;5041696;28;20079;-67
2022/10/18 09:58:45;;;;;;;5.05;2.75;;;;;;;;;;5022853;28;20600;-67
2022/10/18 10:01:23;;;;;;;9.30;2.72;;;;;;;;;;5036267;28;20450;-68
2022/10/18 10:03:50;;;;;;;6.32;2.92;;;;;;;;;;5036931;28;20472;-67
2022/10/18 10:06:30;;;;;;;3.78;2.78;;;;;;;;;;5035853;28;20124;-67
2022/10/18 10:09:00;;;;;;;6.57;3.28;;;;;;;;;;5035457;28;20049;-67
2022/10/18 10:11:39;;;;;;;5.43;3.55;;;;;;;;;;5040230;28;20205;-67
2022/10/18 10:14:15;;;;;;;7.35;3.03;;;;;;;;;;5036960;28;20060;-67
2022/10/18 10:16:51;;;;;;;10.82;3.28;;;;;;;;;;5038119;28;20144;-68
2022/10/18 10:19:23;;;;;;;6.47;3.10;;;;;;;;;;5035149;28;20513;-67
2022/10/18 10:21:52;;;;;;;6.07;2.97;;;;;;;;;;5035926;28;20144;-67
2022/10/18 10:24:23;;;;;;;7.65;3.10;;;;;;;;;;5037457;28;20072;-67
2022/10/18 10:26:59;;;;;;;6.43;2.97;;;;;;;;;;5037475;28;20041;-68
2022/10/18 10:29:52;;;;;;;4.30;3.10;;;;;;;;;;5019492;28;20136;-68
2022/10/18 10:32:19;;;;;;;;;;;;;;;;;;5038181;28;20452;-68
2022/10/18 10:34:46;;;;;;;10.38;3.35;;;;;;;;;;5037062;28;20024;-68
2022/10/18 10:37:22;;;;;;;4.25;2.80;;;;;;;;;;5036308;28;20108;-68
2022/10/18 10:40:09;;;;;;;7.95;2.97;;;;;;;;;;5038962;28;20069;-68
2022/10/18 10:43:05;;;;;;;6.35;3.22;;;;;;;;;;5040505;28;20137;-68
2022/10/18 10:45:58;;;;;;;8.10;4.32;;;;;;;;;;5038156;28;20060;-68
2022/10/18 10:48:25;;;;;;;7.05;3.38;;;;;;;;;;5043334;28;20135;-68
2022/10/18 10:51:03;;;;;;;5.07;3.30;;;;;;;;;;5045130;28;20052;-68
2022/10/18 10:53:49;;;;;;;4.90;2.97;;;;;;;;;;5041083;28;20044;-68
2022/10/18 10:56:27;;;;;;;6.55;3.80;;;;;;;;;;5041694;28;20303;-68
2022/10/18 10:58:55;;;;;;;5.57;2.97;;;;;;;;;;5044626;28;20110;-68
2022/10/18 11:01:30;;;;;;;5.80;3.28;;;;;;;;;;5041815;28;20099;-68
2022/10/18 11:04:02;;;;;;;8.32;3.50;;;;;;;;;;5012158;28;20119;-67
2022/10/18 11:06:33;;;;;;;5.80;2.80;;;;;;;;;;5041292;28;20046;-68
2022/10/18 11:09:00;;;;;;;10.90;2.88;;;;;;;;;;5024046;28;20563;-68
2022/10/18 11:11:35;;;;;;;3.90;2.58;;;;;;;;;;5038164;28;20118;-68
2022/10/18 11:14:20;;;;;;;4.22;2.60;;;;;;;;;;5036704;28;20060;-68
2022/10/18 11:17:33;;;;;;;3.08;2.30;;;;;;;;;;5053957;28;20115;-68
2022/10/18 11:20:06;;;;;;;4.32;2.42;;;;;;;;;;5038696;28;20045;-70
2022/10/18 11:22:34;;;;;;;;;;;;;;;;;;5040202;28;20089;-68
2022/10/18 11:25:03;;;;;;;3.10;2.25;;;;;;;;;;5043523;28;19974;-68
2022/10/18 11:27:56;;;;;;;8.07;2.85;;;;;;;;;;5037477;28;20091;-68
2022/10/18 11:30:41;;;;;;;4.80;2.53;;;;;;;;;;5036149;28;20042;-68
2022/10/18 11:33:14;;;;;;;6.57;2.83;;;;;;;;;;5036675;28;20061;-68
2022/10/18 11:35:40;;;;;;;;;;;;;;;;;;5042677;28;20107;-68
2022/10/18 11:38:25;;;;;;;6.97;2.60;;;;;;;;;;5036438;28;20047;-67
2022/10/18 11:41:03;;;;;;;7.38;2.67;;;;;;;;;;5039647;28;20128;-67
2022/10/18 11:43:48;;;;;;;9.88;2.47;;;;;;;;;;5038886;28;20049;-67
2022/10/18 11:46:44;;;;;;;4.45;2.47;;;;;;;;;;5039012;28;20049;-66
2022/10/18 11:49:32;;;;;;;3.23;2.10;;;;;;;;;;5038890;28;20095;-67
2022/10/18 11:52:14;;;;;;;4.65;1.92;;;;;;;;;;5038903;28;20327;-66
2022/10/18 11:54:50;;;;;;;6.35;2.42;;;;;;;;;;5035055;28;20115;-66
2022/10/18 11:57:28;;;;;;;7.10;2.00;;;;;;;;;;5030826;28;20096;-66
2022/10/18 12:00:30;;;;;;;5.18;2.28;;;;;;;;;;5030244;28;20099;-66
2022/10/18 12:03:17;;;;;;;6.40;1.90;;;;;;;;;;5041205;28;20118;-66
2022/10/18 12:05:45;;;;;;;2.85;1.67;;;;;;;;;;5038408;28;20133;-66
2022/10/18 12:08:16;;;;;;;7.88;2.75;;;;;;;;;;5020480;28;20133;-67
2022/10/18 12:10:46;;;;;;;5.53;2.08;;;;;;;;;;5038971;28;20132;-67
2022/10/18 12:13:36;;;;;;;7.80;1.92;;;;;;;;;;5026086;28;20126;-68
2022/10/18 12:16:03;;;;;;;6.80;2.28;;;;;;;;;;5039584;28;20710;-68
2022/10/18 12:18:30;;;;;;;6.28;2.33;;;;;;;;;;5033950;28;20106;-68
2022/10/18 12:20:57;;;;;;;6.45;2.28;;;;;;;;;;5036661;28;20050;-66
2022/10/18 12:23:37;;;;;;;4.10;2.00;;;;;;;;;;5040054;28;20048;-66
2022/10/18 12:26:06;;;;;;;2.85;1.40;;;;;;;;;;5039562;28;20094;-66
2022/10/18 12:28:41;;;;;;;1.98;1.40;;;;;;;;;;5039963;28;20053;-66
2022/10/18 12:31:14;;;;;;;4.60;2.10;;;;;;;;;;5029997;28;20081;-66
2022/10/18 12:33:45;;;;;;;8.05;2.05;;;;;;;;;;5030034;28;20049;-66
2022/10/18 12:36:21;;;;;;;4.50;2.10;;;;;;;;;;5037282;28;20059;-66
2022/10/18 12:38:59;;;;;;;2.83;1.90;;;;;;;;;;5041963;28;20068;-66
2022/10/18 12:41:31;;;;;;;5.68;2.28;;;;;;;;;;5024910;28;20072;-66
2022/10/18 12:44:03;;;;;;;3.20;1.67;;;;;;;;;;5025322;28;20491;-66
2022/10/18 12:46:56;;;;;;;2.90;1.77;;;;;;;;;;5037314;28;20052;-66
2022/10/18 12:49:36;;;;;;;7.10;2.22;;;;;;;;;;5043044;28;20053;-66
2022/10/18 12:52:28;;;;;;;5.55;2.35;;;;;;;;;;5035920;28;20081;-66
2022/10/18 12:55:18;;;;;;;4.55;2.67;;;;;;;;;;5037660;28;20050;-66
2022/10/18 12:57:50;;;;;;;2.90;2.40;;;;;;;;;;5042146;28;20060;-65
2022/10/18 13:00:29;;;;;;;5.60;2.25;;;;;;;;;;5039471;28;20638;-65
2022/10/18 13:03:07;;;;;;;3.78;2.00;;;;;;;;;;5042099;28;20049;-66
2022/10/18 13:05:46;;;;;;;5.68;1.70;;;;;;;;;;5041188;28;20487;-66
2022/10/18 13:08:28;;;;;;;6.38;2.00;;;;;;;;;;5043267;28;20095;-65
2022/10/18 13:11:00;;;;;;;2.65;1.65;;;;;;;;;;5038701;28;20124;-66
2022/10/18 13:13:26;;;;;;;3.45;1.65;;;;;;;;;;5041617;28;20049;-65
2022/10/18 13:16:19;;;;;;;2.30;1.73;;;;;;;;;;5045041;28;20068;-65
2022/10/18 13:18:48;;;;;;;4.15;1.40;;;;;;;;;;5041325;28;20080;-66
2022/10/18 13:21:24;;;;;;;1.80;1.30;;;;;;;;;;5039667;28;20049;-67
2022/10/18 13:24:22;;;;;;;2.97;1.40;;;;;;;;;;5040736;28;20053;-67
2022/10/18 13:27:04;;;;;;;3.45;1.70;;;;;;;;;;5035772;28;20045;-67
2022/10/18 13:30:11;;;;;;;4.40;1.50;;;;;;;;;;5041833;28;20051;-66
2022/10/18 13:33:21;;;;;;;7.05;2.15;;;;;;;;;;5042901;28;20479;-66
2022/10/18 13:35:57;;;;;;;3.95;1.40;;;;;;;;;;5053883;28;20499;-66
2022/10/18 13:38:46;;;;;;;3.70;1.38;;;;;;;;;;5039292;28;20045;-66
2022/10/18 13:41:18;;;;;;;5.85;1.40;;;;;;;;;;5031210;28;20064;-67
2022/10/18 13:44:03;;;;;;;5.25;1.63;;;;;;;;;;5036759;28;20136;-67
2022/10/18 13:46:33;;;;;;;1.80;1.33;;;;;;;;;;5030329;28;20080;-66
2022/10/18 13:49:23;;;;;;;3.92;1.60;;;;;;;;;;5036943;28;20049;-66
2022/10/18 13:52:12;;;;;;;3.47;1.77;;;;;;;;;;5040156;28;20068;-67
2022/10/18 13:54:55;;;;;;;4.55;1.70;;;;;;;;;;5041423;28;20076;-66
2022/10/18 13:57:43;;;;;;;3.67;1.83;;;;;;;;;;5041104;28;20048;-66
2022/10/18 14:00:35;;;;;;;4.68;2.13;;;;;;;;;;5025646;28;20591;-67
2022/10/18 14:03:36;;;;;;;3.08;2.08;;;;;;;;;;5034287;28;20080;-68
2022/10/18 14:06:26;;;;;;;5.28;1.88;;;;;;;;;;5037963;28;20084;-69
2022/10/18 14:09:16;;;;;;;5.47;1.98;;;;;;;;;;5019777;28;20575;-67
2022/10/18 14:12:13;;;;;;;3.63;1.88;;;;;;;;;;5035383;28;20045;-68
2022/10/18 14:14:44;;;;;;;2.22;1.67;;;;;;;;;;5033748;28;20084;-69
2022/10/18 14:17:49;;;;;;;2.80;1.88;;;;;;;;;;5019707;28;20110;-69
2022/10/18 14:20:17;;;;;;;7.60;2.15;;;;;;;;;;5037975;28;20077;-68
2022/10/18 14:22:53;;;;;;;6.05;1.92;;;;;;;;;;5037844;28;20041;-67
2022/10/18 14:25:31;;;;;;;4.38;2.10;;;;;;;;;;5035309;28;20049;-68
2022/10/18 14:28:06;;;;;;;2.15;1.60;;;;;;;;;;5037869;28;20131;-69
2022/10/18 14:30:56;;;;;;;3.40;2.00;;;;;;;;;;5036260;28;20136;-69
2022/10/18 14:33:25;;;;;;;2.30;1.92;;;;;;;;;;5037018;28;20045;-69
2022/10/18 14:35:59;;;;;;;5.13;2.08;;;;;;;;;;5029636;28;20064;-69
2022/10/18 14:38:25;;;;;;;4.78;2.00;;;;;;;;;;5037703;28;20076;-69
2022/10/18 14:41:10;;;;;;;2.95;2.10;;;;;;;;;;5035039;28;20088;-68
2022/10/18 14:43:37;;;;;;;6.40;2.13;;;;;;;;;;5035919;28;20088;-67
2022/10/18 14:46:16;;;;;;;4.78;2.03;;;;;;;;;;5036365;28;20084;-69
2022/10/18 14:48:57;;;;;;;4.30;2.13;;;;;;;;;;5035598;28;20049;-69
2022/10/18 14:51:25;;;;;;;3.42;1.65;;;;;;;;;;5036435;28;20551;-67
2022/10/18 14:53:52;;;;;;;4.45;2.05;;;;;;;;;;5037172;28;20495;-68
2022/10/18 14:56:23;;;;;;;2.53;1.60;;;;;;;;;;5037428;28;20057;-70
2022/10/18 14:58:51;;;;;;;3.00;1.92;;;;;;;;;;5020093;28;20089;-67
2022/10/18 15:01:24;;;;;;;3.78;1.70;;;;;;;;;;5035092;28;20504;-69
2022/10/18 15:03:55;;;;;;;4.07;1.50;;;;;;;;;;5037426;28;20053;-68
2022/10/18 15:06:21;;;;;;;3.45;2.05;;;;;;;;;;5034652;28;20049;-66
2022/10/18 15:08:55;;;;;;;3.78;1.77;;;;;;;;;;5033534;28;20084;-66
2022/10/18 15:11:23;;;;;;;3.17;1.83;;;;;;;;;;5039707;28;20436;-66
2022/10/18 15:13:58;;;;;;;4.72;2.25;;;;;;;;;;5038695;28;20098;-68
2022/10/18 15:16:27;;;;;;;2.72;1.95;;;;;;;;;;5034570;28;20076;-71
2022/10/18 15:19:06;;;;;;;3.90;2.10;;;;;;;;;;5044248;28;20138;-68
2022/10/18 15:21:34;;;;;;;3.55;2.15;;;;;;;;;;5034664;28;20053;-68